Hlavní strana
METAR-TAF:

METAR-TAF

Letiště :

Letiště Larnaka

Larnaka, Kypr

zeměpisná šířka: 34-53N, zeměpisná délka: 033-38E, výška: 2 m

Aktuální stav počasí

Zpráva byla vytvořena před 33 minutami, v 20:30 UTC
Severozápadní vítr 5 kt
Teplota 6°C
Vlhkost vzduchu 75%
Tlak 1030 hPa
Viditelnost 10 km a více
Žádná oblačnost pod 1500 m, nevyskytují se cumulonimby.

METAR: LCLK 252030Z 31005KT CAVOK 06/02 Q1030 NOSIG

Čas: 23:03 (21:03 UTC)

Předpověď počasí

Zpráva byla vytvořena před 3 hodinami a 33 minutami, v 17:30 UTC
Předpověď platná od 25 v 18 UTC do 26 v 18 UTC
Západoseverozápadní vítr 7 kt
Viditelnost 10 km a více
Žádná oblačnost pod 1500 m, nevyskytují se cumulonimby.
Změna
od 26 v 08 UTC do 26 v 12 UTC
Jihozápadní vítr 14 kt
Změna
od 26 v 15 UTC do 26 v 18 UTC
Západoseverozápadní vítr 7 kt

TAF: LCLK 251730Z 2518/2618 29007KT CAVOK BECMG 2608/2612 22014KT BECMG 2615/2618 30007KT

Stav a předpovědi počasí z více než 4 000 letišť (zprávy METAR a TAF).

Červené a žluté tečky na mapě představují dostupné meteorologické stanice.

Když kurzor umístíte na tečku, zobrazí se název stanice.

Pak kliknutím zobrazíte stav a předpověď počasí.

Chcete-li změnit mapu, kliknutím na zelené tlačítko se znaménkem +mapu přiblížíte, kliknutím na zelené tlačítko se znaménkem – mapu oddálíte a kliknutím na zelené šipky přejdete na sousední mapy.


METAR-TAF: